Language selection

Features

My Weather Profile Weather Topics  | 

Johnstone Strait: Past 24 Hour Conditions

 

La Perouse Bank - 46206

08:00 AM PDT 10 April 2021Buoy position: 48.83N 126.0W
Disclaimer

This table is a summary of hourly weather conditions for the past 24 hours.
Please note that these observations might not always be representative of weather conditions over their associated marine area.

Date / Time
(PDT)
Wind(knots) Wave height(m) Wave period(s) Pressure(kPa) Air tempC) Water tempC)
10 April 2021
8:00 WNW 16 gust 19 3.2 14.0 102.2 5 8
7:00 NW 16 gust 19 3.2 14.0 102.1 5 8
6:00 NNW 16 gust 19 3.3 14.0 102.0 5 8
5:00 NW 16 gust 19 3.3 12.0 101.9 5 8
4:00 WNW 22 gust 31 3.6 10.0 101.9 3 8
3:00 NNW 19 gust 29 3.3 12.0 101.8 3 8
2:00 NW 22 gust 25 3.4 12.0 101.7 5 8
1:00 WNW 22 gust 29 3.2 10.0 101.6 5 8
0:00 NW 22 gust 27 2.9 9.0 101.6 6 8
09 April 2021
23:00 WNW 23 gust 29 2.9 10.0 101.5 6 8
22:00 WNW 17 gust 23 2.9 10.0 101.5 6 8
21:00 NW 25 gust 31 3.0 11.0 101.5 6 8
20:00 WNW 22 gust 25 3.0 10.0 101.5 7 8
19:00 W 19 gust 25 2.8 10.0 101.5 7 8
18:00 W 17 gust 22 2.8 9.0 101.5 7 8
17:00 W 13 gust 17 2.7 10.0 101.5 8 8
16:00 W 16 gust 19 3.0 9.0 101.6 8 8
15:00 WSW 13 gust 19 3.0 9.0 101.6 7 9
14:00 SW 22 gust 25 2.8 9.0 101.6 8 8
13:00 SW 22 gust 27 2.4 6.0 101.6 8 8
12:00 SSW 22 gust 27 2.1 5.0 101.7 8 8
11:00 SW 22 gust 25 1.9 5.0 101.8 7 8
10:00 SSW 17 gust 22 1.8 5.0 101.9 7 8
9:00 SW 17 gust 23 1.6 5.0 101.9 7 8
8:00 SSW 17 gust 23 1.6 5.0 102.0 7 9

Zoom-in to make a selection

Map of Pacific - Georgia Basin marine weather areas Sentry Shoal - 46131 Halibut Bank - 46146 La Perouse Bank - 46206 Georgia Strait - 46303 English Bay - 46304 Discovery Island Esquimalt Harbour Kelp Reefs Malahat Race Rocks Lightstation Saturna Island Sheringham Point University of Victoria Victoria Gonzales Victoria Int'l Airport Ballenas Islands Campbell River Airport Comox Airport Entrance Island Fanny Island Nanaimo Airport Sisters Islets Estevan Point Port Alberni Tofino Airport Grief Point Howe Sound - Pam Rocks Powell River Airport Sechelt Squamish Airport Point Atkinson Sand Heads Lightstation Tsawwassen Ferry Terminal Vancouver Int'l Airport Vancouver Harbour West Vancouver
Legend:
buoy Buoy
land station Land Station

Pacific - Georgia Basin Area

Another Region

What we are doing

Date modified: